Time;durP1;ratioP1;P1;durP2;ratioP2;P2;SDS_P1;SDS_P2;PMS_P1;PMS_P2;Temp;Humidity;BMP_temperature;BMP_pressure;BME280_temperature;BME280_humidity;BME280_pressure;Samples;Min_cycle;Max_cycle;Signal;HPM_P1;HPM_P2
2021/04/05 00:01:47;;;;;;;7.55;4.10;;;;;;;4.92;47.21;95587.31;5031724;28;20060;-48
2021/04/05 00:04:13;;;;;;;6.88;3.80;;;;;;;4.89;47.31;95585.25;5024851;28;20096;-47
2021/04/05 00:06:39;;;;;;;6.85;3.58;;;;;;;4.90;47.24;95580.66;5011787;28;20050;-48
2021/04/05 00:09:06;;;;;;;6.25;3.47;;;;;;;4.84;47.52;95577.34;5011208;28;20042;-48
2021/04/05 00:11:33;;;;;;;8.25;3.92;;;;;;;4.86;47.30;95574.34;5012011;28;20077;-50
2021/04/05 00:14:00;;;;;;;6.50;3.88;;;;;;;4.83;47.71;95570.38;5011842;28;20061;-48
2021/04/05 00:16:26;;;;;;;8.95;4.18;;;;;;;4.94;47.01;95557.53;5011663;28;20100;-49
2021/04/05 00:18:53;;;;;;;5.68;3.50;;;;;;;4.81;47.40;95556.50;5010867;28;20111;-48
2021/04/05 00:21:21;;;;;;;5.35;2.92;;;;;;;4.81;47.51;95545.78;5011974;28;20066;-49
2021/04/05 00:23:52;;;;;;;6.72;3.35;;;;;;;4.73;47.81;95549.19;5011607;28;20136;-48
2021/04/05 00:26:19;;;;;;;6.35;3.38;;;;;;;4.77;47.77;95544.78;5009766;28;20049;-48
2021/04/05 00:28:47;;;;;;;4.53;3.25;;;;;;;4.79;47.78;95545.28;5010882;28;20054;-49
2021/04/05 00:31:14;;;;;;;7.10;3.25;;;;;;;4.83;47.42;95548.16;5011585;28;20192;-50
2021/04/05 00:33:40;;;;;;;7.15;4.03;;;;;;;4.82;47.63;95547.34;5011397;28;20062;-49
2021/04/05 00:36:08;;;;;;;5.93;3.97;;;;;;;4.72;48.18;95536.09;5011913;28;20054;-49
2021/04/05 00:38:35;;;;;;;9.38;4.40;;;;;;;4.75;48.02;95524.75;5011379;28;20058;-50
2021/04/05 00:41:10;;;;;;;7.03;4.00;;;;;;;4.74;48.03;95513.22;5011927;28;20137;-52
2021/04/05 00:43:38;;;;;;;5.05;3.35;;;;;;;4.64;48.34;95508.13;5027070;28;20053;-48
2021/04/05 00:46:06;;;;;;;6.13;3.85;;;;;;;4.73;48.04;95513.56;5011676;28;20096;-49
2021/04/05 00:48:34;;;;;;;6.32;3.30;;;;;;;4.78;47.86;95508.88;5012181;28;20387;-48
2021/04/05 00:51:13;;;;;;;5.75;3.25;;;;;;;4.70;48.18;95504.22;5011801;28;20054;-49
2021/04/05 00:53:43;;;;;;;6.72;3.20;;;;;;;4.65;48.65;95505.16;5011782;28;20111;-49
2021/04/05 00:56:12;;;;;;;5.25;2.78;;;;;;;4.70;48.38;95506.91;5011571;28;20092;-49
2021/04/05 00:58:48;;;;;;;5.65;2.97;;;;;;;4.63;48.53;95493.16;5010673;28;20054;-49
2021/04/05 01:01:18;;;;;;;5.22;3.22;;;;;;;4.72;48.33;95493.22;5011402;28;20178;-52
2021/04/05 01:03:47;;;;;;;6.80;3.10;;;;;;;4.51;48.95;95471.47;5011378;28;20054;-50
2021/04/05 01:06:19;;;;;;;5.05;2.97;;;;;;;4.56;48.94;95474.81;5011568;28;20084;-48
2021/04/05 01:08:46;;;;;;;5.82;3.22;;;;;;;4.59;48.62;95462.72;5011256;28;20396;-47
2021/04/05 01:11:14;;;;;;;6.15;3.05;;;;;;;4.68;48.46;95469.72;5029917;28;20046;-49
2021/04/05 01:13:42;;;;;;;7.38;3.30;;;;;;;4.55;49.02;95467.06;5010860;28;20479;-47
2021/04/05 01:16:09;;;;;;;7.18;3.22;;;;;;;4.48;49.54;95466.72;5011126;28;20499;-47
2021/04/05 01:18:37;;;;;;;4.60;3.00;;;;;;;4.64;48.56;95470.59;5011037;28;20160;-48
2021/04/05 01:21:05;;;;;;;5.80;3.05;;;;;;;4.50;49.40;95469.88;5010800;28;20439;-48
2021/04/05 01:23:32;;;;;;;6.07;3.10;;;;;;;4.56;49.06;95466.78;5026198;28;20099;-48
2021/04/05 01:25:58;;;;;;;5.90;2.85;;;;;;;4.52;49.17;95468.50;5011072;28;20133;-49
2021/04/05 01:28:25;;;;;;;6.40;3.20;;;;;;;4.51;49.50;95474.13;5011220;28;20050;-48
2021/04/05 01:30:57;;;;;;;7.40;3.08;;;;;;;4.47;49.55;95462.47;5010857;28;20076;-50
2021/04/05 01:33:51;;;;;;;8.85;3.47;;;;;;;4.43;49.60;95462.28;5010987;28;20057;-48
2021/04/05 01:36:19;;;;;;;6.38;3.25;;;;;;;4.48;49.52;95453.31;5009921;28;20527;-50
2021/04/05 01:38:50;;;;;;;8.68;3.15;;;;;;;4.42;50.04;95455.34;5010455;28;20053;-48
2021/04/05 01:41:25;;;;;;;4.85;3.30;;;;;;;4.48;49.61;95451.44;5010834;28;20046;-48
2021/04/05 01:43:52;;;;;;;6.00;2.90;;;;;;;4.39;49.86;95432.63;5010680;28;20053;-47
2021/04/05 01:46:20;;;;;;;6.38;3.25;;;;;;;4.34;50.23;95435.41;5010576;28;20054;-47
2021/04/05 01:48:46;;;;;;;6.13;2.88;;;;;;;4.29;50.18;95422.16;5010693;28;20058;-49
2021/04/05 01:51:23;;;;;;;7.50;3.13;;;;;;;4.37;50.16;95423.31;5010874;28;20085;-51
2021/04/05 01:53:51;;;;;;;4.57;2.63;;;;;;;4.16;50.97;95428.34;5010930;28;20062;-47
2021/04/05 01:56:19;;;;;;;4.78;3.13;;;;;;;4.28;50.54;95423.25;5010668;28;20061;-47
2021/04/05 01:58:48;;;;;;;5.35;2.90;;;;;;;4.22;50.77;95427.13;5010539;28;20572;-51
2021/04/05 02:01:18;;;;;;;5.40;3.03;;;;;;;4.25;50.91;95423.06;5010928;28;20406;-49
2021/04/05 02:03:46;;;;;;;5.55;2.95;;;;;;;4.18;51.13;95420.81;5010628;28;20057;-51
2021/04/05 02:06:33;;;;;;;5.43;3.17;;;;;;;4.12;51.38;95416.66;5010703;28;20077;-48
2021/04/05 02:09:00;;;;;;;5.68;3.13;;;;;;;4.19;51.17;95406.31;5010854;28;20054;-50
2021/04/05 02:11:36;;;;;;;4.22;2.60;;;;;;;4.12;51.69;95406.75;5023590;28;20090;-54
2021/04/05 02:14:05;;;;;;;7.75;4.05;;;;;;;3.98;52.06;95398.78;5034117;28;20131;-52
2021/04/05 02:16:32;;;;;;;5.22;2.95;;;;;;;4.06;52.09;95393.78;5030015;28;20088;-49
2021/04/05 02:19:00;;;;;;;5.20;3.15;;;;;;;4.09;51.61;95387.81;5014324;28;20057;-51
2021/04/05 02:21:28;;;;;;;5.45;2.78;;;;;;;4.10;51.79;95394.78;5014220;28;20061;-48
2021/04/05 02:24:00;;;;;;;6.38;3.35;;;;;;;4.16;51.20;95390.84;5014291;28;20410;-48
2021/04/05 02:26:30;;;;;;;5.05;2.95;;;;;;;4.17;51.23;95387.09;5014048;28;20061;-47
2021/04/05 02:28:59;;;;;;;4.10;2.80;;;;;;;4.09;51.49;95379.78;5014268;28;20050;-48
2021/04/05 02:31:28;;;;;;;5.80;2.75;;;;;;;3.96;52.14;95374.22;5014336;28;20102;-52
2021/04/05 02:34:05;;;;;;;6.50;2.97;;;;;;;4.11;51.42;95370.38;5013935;28;20076;-48
2021/04/05 02:36:33;;;;;;;5.00;3.00;;;;;;;4.09;51.49;95369.09;5014057;28;20084;-52
2021/04/05 02:39:04;;;;;;;5.82;2.97;;;;;;;4.01;51.88;95372.50;5013694;28;20080;-50
2021/04/05 02:41:33;;;;;;;7.60;3.17;;;;;;;4.05;51.67;95365.44;5013792;28;20057;-48
2021/04/05 02:44:00;;;;;;;5.20;3.00;;;;;;;4.10;51.44;95376.03;5013921;28;20057;-49
2021/04/05 02:46:29;;;;;;;4.80;2.95;;;;;;;3.99;51.91;95376.25;5013600;28;20092;-51
2021/04/05 02:48:59;;;;;;;6.82;2.95;;;;;;;3.94;52.31;95372.94;5013690;28;20076;-50
2021/04/05 02:51:26;;;;;;;5.53;2.80;;;;;;;3.89;52.37;95381.06;5013723;28;20053;-48
2021/04/05 02:54:00;;;;;;;4.55;2.78;;;;;;;3.92;52.26;95380.47;5013435;28;20400;-49
2021/04/05 02:56:29;;;;;;;4.70;2.70;;;;;;;3.86;52.80;95365.59;5013436;28;20085;-47
2021/04/05 02:58:57;;;;;;;4.85;2.85;;;;;;;3.86;52.64;95361.03;5013368;28;20078;-48
2021/04/05 03:01:25;;;;;;;4.63;2.90;;;;;;;3.87;52.64;95357.28;5013475;28;20134;-49
2021/04/05 03:03:55;;;;;;;5.95;2.85;;;;;;;3.83;52.70;95350.94;5013027;28;20050;-49
2021/04/05 03:06:23;;;;;;;4.97;2.85;;;;;;;3.88;52.44;95356.19;5013247;28;20538;-48
2021/04/05 03:08:49;;;;;;;5.90;3.00;;;;;;;3.89;52.21;95347.06;5026011;28;20050;-49
2021/04/05 03:11:20;;;;;;;7.38;2.80;;;;;;;3.90;52.26;95337.94;5025293;28;20050;-48
2021/04/05 03:13:48;;;;;;;5.30;2.70;;;;;;;3.89;52.36;95327.53;5013269;28;20105;-48
2021/04/05 03:16:21;;;;;;;7.53;2.80;;;;;;;3.91;52.15;95323.47;5013025;28;20115;-49
2021/04/05 03:18:49;;;;;;;5.28;2.60;;;;;;;3.83;52.84;95323.41;5012655;28;20072;-48
2021/04/05 03:21:20;;;;;;;5.60;3.00;;;;;;;3.87;52.57;95313.69;5027503;28;20046;-48
2021/04/05 03:23:47;;;;;;;4.75;3.03;;;;;;;3.87;52.34;95298.41;5013034;28;20112;-48
2021/04/05 03:26:15;;;;;;;5.28;2.63;;;;;;;3.81;52.47;95296.94;5013039;28;20058;-50
2021/04/05 03:28:41;;;;;;;5.25;2.63;;;;;;;3.91;52.26;95287.88;4995179;28;20086;-48
2021/04/05 03:31:19;;;;;;;7.45;2.90;;;;;;;3.92;52.40;95294.81;5012731;28;20116;-47
2021/04/05 03:33:54;;;;;;;4.78;2.38;;;;;;;3.82;52.52;95287.81;5012645;28;20549;-47
2021/04/05 03:36:26;;;;;;;5.03;2.55;;;;;;;3.92;52.11;95284.91;5013053;28;20042;-47
2021/04/05 03:38:54;;;;;;;6.38;3.50;;;;;;;3.79;52.74;95275.06;5012405;28;20171;-48
2021/04/05 03:41:33;;;;;;;4.97;2.70;;;;;;;3.86;52.39;95270.06;5012518;28;20042;-48
2021/04/05 03:44:14;;;;;;;6.63;2.65;;;;;;;3.84;52.56;95266.13;5012732;28;20126;-49
2021/04/05 03:46:44;;;;;;;6.35;2.75;;;;;;;3.79;52.71;95259.00;5012672;28;20058;-49
2021/04/05 03:49:25;;;;;;;7.53;2.63;;;;;;;3.78;52.69;95249.41;5011912;28;20053;-52
2021/04/05 03:52:18;;;;;;;5.72;2.50;;;;;;;3.79;52.71;95250.97;5012375;28;20207;-47
2021/04/05 03:54:49;;;;;;;5.60;2.60;;;;;;;3.72;52.74;95248.72;5011452;28;20050;-47
2021/04/05 03:57:19;;;;;;;5.80;2.80;;;;;;;3.73;52.83;95234.25;5012306;28;20112;-48
2021/04/05 03:59:51;;;;;;;3.90;2.10;;;;;;;3.82;52.69;95238.88;5012128;28;20054;-49
2021/04/05 04:02:24;;;;;;;5.22;2.60;;;;;;;3.89;51.93;95237.34;5012134;28;20393;-48
2021/04/05 04:05:01;;;;;;;5.00;2.83;;;;;;;3.81;52.64;95240.75;5012545;28;20050;-47
2021/04/05 04:10:09;;;;;;;4.75;2.65;;;;;;;3.86;51.63;95231.81;5012147;28;20054;-47
2021/04/05 04:12:42;;;;;;;4.72;2.58;;;;;;;3.80;51.92;95233.81;5036919;22;20064;-52
2021/04/05 04:15:11;;;;;;;5.75;2.65;;;;;;;3.82;51.99;95225.50;5019436;28;20528;-56
2021/04/05 04:17:38;;;;;;;4.85;2.50;;;;;;;3.91;51.33;95227.13;5030516;28;20057;-54
2021/04/05 04:20:09;;;;;;;6.43;2.70;;;;;;;3.92;51.42;95231.38;5016566;28;20057;-57
2021/04/05 04:22:36;;;;;;;4.88;2.60;;;;;;;3.92;51.19;95219.88;4995649;28;20051;-55
2021/04/05 04:25:04;;;;;;;7.57;2.60;;;;;;;3.89;51.68;95225.84;4992416;28;20054;-56
2021/04/05 04:27:31;;;;;;;5.45;2.65;;;;;;;3.87;51.60;95210.09;4990652;28;20120;-54
2021/04/05 04:29:57;;;;;;;4.53;2.72;;;;;;;3.86;51.57;95205.81;4991795;28;20112;-52
2021/04/05 04:32:25;;;;;;;5.88;2.38;;;;;;;3.86;51.47;95203.16;5022776;28;20422;-52
2021/04/05 04:34:52;;;;;;;5.05;2.60;;;;;;;3.86;51.40;95189.78;5031110;28;20084;-56
2021/04/05 04:37:19;;;;;;;4.63;2.63;;;;;;;3.83;51.47;95185.03;5028664;28;20061;-55
2021/04/05 04:39:46;;;;;;;5.03;2.35;;;;;;;3.86;51.65;95179.06;4991500;28;20050;-54
2021/04/05 04:42:13;;;;;;;5.45;2.53;;;;;;;3.86;51.83;95184.41;4990508;28;20047;-54
2021/04/05 04:44:40;;;;;;;3.55;2.22;;;;;;;3.87;51.61;95172.63;4992155;28;20050;-54
2021/04/05 04:47:07;;;;;;;5.15;2.60;;;;;;;3.88;51.32;95170.75;4991776;28;20046;-54
2021/04/05 04:49:33;;;;;;;5.05;2.85;;;;;;;3.94;51.21;95161.50;4991749;28;20112;-56
2021/04/05 04:52:00;;;;;;;5.38;2.90;;;;;;;3.95;51.21;95165.75;4991994;28;20112;-55
2021/04/05 04:54:26;;;;;;;4.13;2.25;;;;;;;4.02;50.99;95166.06;4991901;28;20122;-55
2021/04/05 04:56:53;;;;;;;6.35;2.30;;;;;;;4.07;51.05;95155.25;4991650;28;20101;-54
2021/04/05 04:59:21;;;;;;;4.57;2.60;;;;;;;4.08;51.00;95156.81;4991396;28;20066;-57
2021/04/05 05:01:48;;;;;;;4.43;2.40;;;;;;;4.08;51.02;95153.34;4991833;28;20062;-57
2021/04/05 05:04:23;;;;;;;4.50;2.50;;;;;;;4.08;51.00;95151.47;4974483;28;20534;-48
2021/04/05 05:06:53;;;;;;;4.68;2.40;;;;;;;4.15;50.95;95159.81;4991762;28;20463;-52
2021/04/05 05:09:20;;;;;;;7.10;2.72;;;;;;;4.17;50.67;95152.28;4993879;28;20077;-54
2021/04/05 05:11:46;;;;;;;5.80;2.67;;;;;;;4.17;50.81;95154.97;4991930;28;20054;-50
2021/04/05 05:14:15;;;;;;;4.20;2.20;;;;;;;4.25;50.58;95153.41;5011153;28;20485;-48
2021/04/05 05:16:43;;;;;;;4.70;2.45;;;;;;;4.25;50.62;95158.75;5015774;28;20047;-52
2021/04/05 05:19:13;;;;;;;3.67;2.10;;;;;;;4.29;50.38;95151.69;4991537;28;20054;-48
2021/04/05 05:21:44;;;;;;;6.22;2.72;;;;;;;4.30;50.75;95158.63;4991823;28;20074;-48
2021/04/05 05:24:14;;;;;;;5.93;2.55;;;;;;;4.36;50.68;95153.91;5012720;28;20054;-49
2021/04/05 05:26:43;;;;;;;3.90;2.17;;;;;;;4.34;50.82;95159.56;5001444;28;20058;-48
2021/04/05 05:29:12;;;;;;;4.93;2.40;;;;;;;4.52;50.29;95157.75;4991100;28;20082;-52
2021/04/05 05:31:41;;;;;;;5.78;2.85;;;;;;;4.54;49.81;95158.19;4991581;28;20389;-55
2021/04/05 05:34:15;;;;;;;5.82;2.67;;;;;;;4.56;49.85;95156.00;4989885;28;20054;-53
2021/04/05 05:36:43;;;;;;;5.25;2.42;;;;;;;4.73;49.31;95149.88;4991194;28;20117;-54
2021/04/05 05:39:12;;;;;;;4.95;2.67;;;;;;;4.90;48.84;95152.56;4990747;28;20050;-52
2021/04/05 05:41:57;;;;;;;3.88;2.30;;;;;;;4.97;48.63;95151.31;4991367;28;20057;-56
2021/04/05 05:44:42;;;;;;;5.38;2.50;;;;;;;4.93;48.73;95140.44;4992337;28;20050;-57
2021/04/05 05:47:25;;;;;;;4.72;2.58;;;;;;;4.99;48.70;95133.81;5008556;28;20057;-53
2021/04/05 05:50:26;;;;;;;5.30;2.85;;;;;;;5.07;48.46;95140.25;4987819;28;20063;-57
2021/04/05 05:53:29;;;;;;;4.38;2.67;;;;;;;5.17;48.05;95129.25;5004168;28;20507;-57
2021/04/05 05:56:11;;;;;;;5.50;2.60;;;;;;;5.30;47.24;95125.59;5000879;28;20447;-57
2021/04/05 05:58:56;;;;;;;5.25;2.97;;;;;;;5.34;47.18;95125.75;4995151;28;20116;-57
2021/04/05 06:01:35;;;;;;;5.32;2.85;;;;;;;5.43;46.79;95121.16;4994010;28;20385;-55
2021/04/05 06:04:33;;;;;;;8.00;2.83;;;;;;;5.48;46.90;95112.94;4995246;28;20058;-50
2021/04/05 06:07:07;;;;;;;5.90;2.88;;;;;;;5.59;46.33;95121.44;4991002;28;20054;-50
2021/04/05 06:09:46;;;;;;;6.22;2.78;;;;;;;5.60;46.21;95115.75;4994206;28;20054;-50
2021/04/05 06:12:48;;;;;;;6.60;2.88;;;;;;;5.68;46.02;95114.13;5012030;28;20061;-51
2021/04/05 06:15:21;;;;;;;5.55;2.80;;;;;;;5.75;46.11;95114.44;4998584;28;20058;-52
2021/04/05 06:18:03;;;;;;;5.90;2.45;;;;;;;5.84;45.79;95120.53;5000952;28;20054;-54
2021/04/05 06:21:08;;;;;;;4.93;2.75;;;;;;;5.98;45.68;95109.66;5012171;28;20046;-54
2021/04/05 06:23:50;;;;;;;5.32;2.60;;;;;;;5.98;46.61;95106.16;5016303;28;20053;-53
2021/04/05 06:26:32;;;;;;;4.63;2.58;;;;;;;6.26;45.04;95103.81;5014528;28;20096;-56
2021/04/05 06:29:37;;;;;;;4.10;2.42;;;;;;;6.41;44.17;95086.34;5008988;28;20107;-56
2021/04/05 06:32:15;;;;;;;5.57;2.80;;;;;;;6.56;43.85;95077.69;5034415;28;20418;-58
2021/04/05 06:35:12;;;;;;;7.13;2.78;;;;;;;6.63;43.35;95075.28;5034144;28;20061;-53
2021/04/05 06:37:44;;;;;;;4.38;2.50;;;;;;;6.77;42.97;95075.03;5006259;28;20158;-51
2021/04/05 06:40:15;;;;;;;7.53;2.88;;;;;;;6.93;42.66;95069.84;4994397;28;20046;-55
2021/04/05 06:42:42;;;;;;;4.75;3.10;;;;;;;7.07;42.17;95062.25;4998889;28;20054;-52
2021/04/05 06:45:48;;;;;;;4.28;2.53;;;;;;;7.15;42.38;95055.22;5013151;28;20106;-51
2021/04/05 06:48:51;;;;;;;5.53;3.10;;;;;;;7.39;41.13;95057.22;4992717;28;20496;-51
2021/04/05 06:51:32;;;;;;;4.63;2.58;;;;;;;7.62;40.75;95053.00;4995350;28;20050;-53
2021/04/05 06:54:55;;;;;;;5.00;2.60;;;;;;;7.80;39.87;95047.41;4994562;28;20471;-55
2021/04/05 06:57:32;;;;;;;8.25;3.03;;;;;;;7.89;39.60;95037.31;4971768;28;20472;-58
2021/04/05 07:00:31;;;;;;;7.10;2.80;;;;;;;7.99;39.42;95052.22;5001342;28;20054;-53
2021/04/05 07:03:27;;;;;;;8.73;3.28;;;;;;;8.06;39.42;95037.09;5010252;28;20104;-50
2021/04/05 07:06:14;;;;;;;5.47;2.95;;;;;;;8.13;38.69;95031.91;5010687;28;20054;-50
2021/04/05 07:08:54;;;;;;;8.60;3.42;;;;;;;8.28;38.39;95024.25;4981217;28;20050;-50
2021/04/05 07:11:38;;;;;;;6.70;3.03;;;;;;;8.32;38.64;95025.13;4994341;28;20058;-49
2021/04/05 07:14:26;;;;;;;4.75;2.80;;;;;;;8.41;37.82;95036.63;4994009;28;20194;-53
2021/04/05 07:17:22;;;;;;;8.10;2.90;;;;;;;8.53;37.80;95023.13;4993930;28;20448;-54
2021/04/05 07:20:08;;;;;;;7.63;2.72;;;;;;;8.77;37.16;95018.78;4994354;28;20503;-55
2021/04/05 07:23:02;;;;;;;5.90;2.90;;;;;;;8.78;36.45;95006.88;5001037;28;20526;-55
2021/04/05 07:26:06;;;;;;;5.75;2.63;;;;;;;8.73;36.32;95001.72;5014096;28;20050;-58
2021/04/05 07:29:00;;;;;;;5.80;2.63;;;;;;;8.79;36.32;95000.34;5012392;28;20061;-56
2021/04/05 07:31:51;;;;;;;5.13;2.67;;;;;;;8.77;36.26;94994.50;5032576;28;20515;-55
2021/04/05 07:34:35;;;;;;;5.25;2.92;;;;;;;8.88;36.57;94990.97;5018553;28;20752;-56
2021/04/05 07:37:01;;;;;;;4.63;3.00;;;;;;;9.08;36.05;94983.03;5016343;28;20050;-55
2021/04/05 07:39:40;;;;;;;6.60;2.60;;;;;;;9.21;35.79;94981.03;5017963;28;20458;-54
2021/04/05 07:42:20;;;;;;;6.88;3.58;;;;;;;9.25;35.61;94976.50;5027980;28;20434;-50
2021/04/05 07:44:57;;;;;;;5.25;3.15;;;;;;;9.49;35.36;94981.75;5023477;28;20623;-53
2021/04/05 07:47:28;;;;;;;6.80;3.00;;;;;;;9.56;35.40;94981.94;5001842;28;20065;-50
2021/04/05 07:50:12;;;;;;;8.05;3.55;;;;;;;9.60;34.09;94993.59;5011874;28;20107;-50
2021/04/05 07:52:50;;;;;;;7.38;3.10;;;;;;;9.69;33.97;94950.22;5004921;28;20058;-53
2021/04/05 07:55:18;;;;;;;5.70;2.67;;;;;;;9.84;33.94;94948.63;4998545;28;20060;-54
2021/04/05 07:58:06;;;;;;;4.93;2.90;;;;;;;9.97;33.43;94949.28;5010079;28;20087;-54
2021/04/05 08:00:52;;;;;;;8.30;2.85;;;;;;;10.17;32.85;94944.72;5008412;28;20080;-55
2021/04/05 08:03:32;;;;;;;7.57;2.90;;;;;;;10.33;32.76;94942.00;5001232;28;20103;-47
2021/04/05 08:06:03;;;;;;;6.45;2.78;;;;;;;10.38;32.43;94949.84;5000794;28;20060;-57
2021/04/05 08:09:00;;;;;;;5.93;2.67;;;;;;;10.31;32.34;94945.06;5006705;28;20119;-52
2021/04/05 08:12:00;;;;;;;4.85;2.70;;;;;;;10.49;32.39;94935.38;5009760;28;20136;-54
2021/04/05 08:14:48;;;;;;;7.60;2.65;;;;;;;10.62;32.30;94935.25;5009160;28;20127;-58
2021/04/05 08:17:35;;;;;;;6.18;2.70;;;;;;;10.86;31.93;94934.16;4999397;28;20129;-57
2021/04/05 08:20:27;;;;;;;5.60;3.05;;;;;;;10.71;31.76;94931.19;5002920;28;20072;-57
2021/04/05 08:23:02;;;;;;;5.70;3.13;;;;;;;10.76;32.04;94922.00;5012066;28;20135;-55
2021/04/05 08:25:48;;;;;;;5.95;2.58;;;;;;;10.98;32.11;94921.25;5008153;28;20058;-57
2021/04/05 08:28:35;;;;;;;7.13;2.65;;;;;;;10.97;31.52;94922.38;5012482;28;20054;-49
2021/04/05 08:31:12;;;;;;;7.55;2.92;;;;;;;10.87;31.90;94922.19;5010022;28;20056;-54
2021/04/05 08:33:42;;;;;;;6.25;2.80;;;;;;;10.88;32.01;94921.81;5011888;28;20502;-46
2021/04/05 08:36:38;;;;;;;8.57;2.78;;;;;;;10.80;32.05;94922.84;5006456;28;20046;-54
2021/04/05 08:39:13;;;;;;;6.13;2.97;;;;;;;10.85;31.80;94925.25;4996555;28;20065;-53
2021/04/05 08:41:52;;;;;;;;;;;;;;;10.91;31.97;94918.41;4992018;28;20727;-48
2021/04/05 08:44:34;;;;;;;4.63;2.60;;;;;;;11.02;31.58;94909.69;4995060;28;19969;-58
2021/04/05 08:47:04;;;;;;;8.57;2.47;;;;;;;11.08;31.30;94929.91;5006997;28;20053;-50
2021/04/05 08:49:31;;;;;;;5.82;2.25;;;;;;;11.13;31.27;94913.38;4992836;28;20050;-56
2021/04/05 08:52:05;;;;;;;4.18;2.15;;;;;;;11.42;31.10;94914.66;4998185;28;20056;-52
2021/04/05 08:54:33;;;;;;;;;;;;;;;11.60;31.00;94895.97;5007961;28;20515;-47
2021/04/05 08:57:14;;;;;;;3.63;2.10;;;;;;;11.69;30.48;94880.22;5008229;28;19928;-56
2021/04/05 08:59:55;;;;;;;5.05;2.10;;;;;;;11.64;30.27;94894.09;5011452;28;20081;-56
2021/04/05 09:02:27;;;;;;;5.43;2.42;;;;;;;11.85;30.65;94875.47;5011151;28;20061;-55
2021/04/05 09:04:55;;;;;;;6.30;1.83;;;;;;;12.21;29.89;94883.28;5009971;28;20070;-59
2021/04/05 09:07:34;;;;;;;5.57;2.13;;;;;;;12.43;29.80;94884.34;5010104;28;20060;-57
2021/04/05 09:10:09;;;;;;;8.88;3.08;;;;;;;12.45;29.28;94865.78;4999028;28;20103;-57
2021/04/05 09:12:37;;;;;;;6.63;2.10;;;;;;;12.50;29.32;94870.88;5010559;28;20107;-50
2021/04/05 09:15:13;;;;;;;9.07;2.50;;;;;;;12.35;29.04;94873.41;5008672;28;20439;-50
2021/04/05 09:18:00;;;;;;;8.73;2.15;;;;;;;12.65;28.69;94852.81;5005007;28;20430;-48
2021/04/05 09:20:48;;;;;;;8.48;2.20;;;;;;;12.33;28.82;94862.16;5010388;28;20049;-52
2021/04/05 09:23:39;;;;;;;10.93;2.30;;;;;;;12.37;29.30;94870.31;5011004;28;20050;-53
2021/04/05 09:26:50;;;;;;;8.27;2.13;;;;;;;12.52;29.14;94863.16;4999041;28;20491;-52
2021/04/05 09:29:41;;;;;;;5.38;2.00;;;;;;;12.22;29.39;94853.13;5020491;28;20108;-57
2021/04/05 09:32:26;;;;;;;5.18;2.00;;;;;;;12.34;29.99;94852.06;5010558;28;20431;-57
2021/04/05 09:35:19;;;;;;;5.70;2.00;;;;;;;12.48;29.26;94843.31;4998368;28;20049;-55
2021/04/05 09:37:48;;;;;;;6.50;1.97;;;;;;;12.51;29.39;94846.09;5005024;28;20069;-57
2021/04/05 09:40:45;;;;;;;6.15;2.25;;;;;;;12.68;29.15;94847.44;5003001;28;20602;-51
2021/04/05 09:43:30;;;;;;;3.30;1.90;;;;;;;12.76;29.22;94824.63;5001857;28;20046;-49
2021/04/05 09:46:03;;;;;;;5.60;2.20;;;;;;;12.60;29.53;94835.69;5010538;28;20057;-58
2021/04/05 09:48:46;;;;;;;9.52;2.05;;;;;;;12.88;29.13;94822.81;5006660;28;20051;-54
2021/04/05 09:51:24;;;;;;;7.55;1.92;;;;;;;12.83;29.17;94824.69;5007620;28;20070;-49
2021/04/05 09:54:06;;;;;;;6.75;2.05;;;;;;;12.76;29.45;94813.00;5008630;28;20054;-51
2021/04/05 09:56:41;;;;;;;4.50;2.22;;;;;;;13.01;28.82;94807.81;4998910;28;20054;-57
2021/04/05 09:59:12;;;;;;;7.53;1.98;;;;;;;12.82;28.74;94814.22;5009136;28;20470;-55
2021/04/05 10:01:39;;;;;;;7.22;2.53;;;;;;;12.83;28.68;94804.91;5009348;28;20042;-50
2021/04/05 10:04:10;;;;;;;7.75;2.40;;;;;;;12.82;28.74;94797.94;5003892;28;20059;-53
2021/04/05 10:06:39;;;;;;;6.75;1.98;;;;;;;12.76;28.66;94802.91;4992842;28;20057;-50
2021/04/05 10:09:08;;;;;;;9.98;2.30;;;;;;;12.74;28.87;94777.28;5009220;28;20050;-50
2021/04/05 10:11:41;;;;;;;8.98;2.22;;;;;;;12.74;28.91;94780.81;5010468;28;20080;-54
2021/04/05 10:14:15;;;;;;;7.35;2.20;;;;;;;12.79;28.92;94791.31;5003428;28;20117;-50
2021/04/05 10:16:52;;;;;;;4.93;2.08;;;;;;;12.85;28.57;94780.91;5007620;28;20049;-53
2021/04/05 10:19:25;;;;;;;5.60;2.00;;;;;;;12.96;28.42;94770.13;5009584;28;20630;-49
2021/04/05 10:21:57;;;;;;;5.20;1.67;;;;;;;13.00;28.51;94771.72;5011583;28;20398;-48
2021/04/05 10:24:24;;;;;;;6.70;1.80;;;;;;;12.88;28.46;94760.38;4993183;28;20080;-49
2021/04/05 10:26:56;;;;;;;3.83;1.60;;;;;;;12.92;27.97;94748.38;4991403;28;20491;-51
2021/04/05 10:29:33;;;;;;;5.25;1.77;;;;;;;13.06;28.13;94747.69;4991608;28;20057;-60
2021/04/05 10:32:05;;;;;;;6.88;2.47;;;;;;;13.12;27.90;94746.19;5007289;28;20074;-50
2021/04/05 10:34:37;;;;;;;4.05;1.70;;;;;;;12.91;28.06;94759.63;4993937;28;20058;-47
2021/04/05 10:37:15;;;;;;;5.03;1.75;;;;;;;13.23;27.85;94757.16;4994782;28;20054;-52
2021/04/05 10:39:53;;;;;;;5.35;2.03;;;;;;;13.07;27.80;94735.69;5013951;28;20054;-57
2021/04/05 10:42:26;;;;;;;6.57;1.58;;;;;;;12.90;28.46;94733.63;5014393;28;20128;-55
2021/04/05 10:45:10;;;;;;;6.35;1.80;;;;;;;12.98;28.22;94736.00;5014773;28;20073;-51
2021/04/05 10:48:00;;;;;;;3.58;1.67;;;;;;;13.01;28.88;94723.63;5002786;28;20063;-49
2021/04/05 10:50:29;;;;;;;4.32;2.03;;;;;;;12.97;28.48;94720.13;4994791;28;20052;-49
2021/04/05 10:53:05;;;;;;;5.22;1.92;;;;;;;13.13;28.84;94701.59;4994555;28;20636;-51
2021/04/05 10:55:39;;;;;;;5.40;1.73;;;;;;;13.08;28.75;94704.66;4994479;28;20050;-58
2021/04/05 10:58:09;;;;;;;;;;;;;;;12.84;29.39;94714.19;4995087;28;20496;-57
2021/04/05 11:00:41;;;;;;;5.32;2.15;;;;;;;13.00;29.65;94713.91;4994725;28;20430;-50
2021/04/05 11:03:14;;;;;;;7.88;2.85;;;;;;;13.09;29.54;94706.22;4993770;28;20076;-49
2021/04/05 11:05:43;;;;;;;4.60;1.95;;;;;;;12.85;29.89;94704.91;4995109;28;20566;-52
2021/04/05 11:08:17;;;;;;;6.50;2.33;;;;;;;13.00;29.67;94697.63;4994702;28;20054;-51
2021/04/05 11:10:46;;;;;;;5.15;2.55;;;;;;;12.94;29.51;94696.44;4994726;28;20503;-55
2021/04/05 11:13:17;;;;;;;9.30;2.60;;;;;;;13.04;29.27;94709.31;4994523;28;20076;-53
2021/04/05 11:15:45;;;;;;;5.68;2.53;;;;;;;12.92;28.99;94682.44;4994478;28;20061;-52
2021/04/05 11:18:16;;;;;;;4.35;2.13;;;;;;;12.97;29.11;94673.97;5007820;28;20057;-49
2021/04/05 11:20:44;;;;;;;4.93;1.92;;;;;;;13.10;28.78;94691.50;4998318;28;20134;-55
2021/04/05 11:23:17;;;;;;;6.47;2.15;;;;;;;12.98;28.67;94681.72;5011862;28;20057;-59
2021/04/05 11:25:51;;;;;;;4.95;2.10;;;;;;;13.07;28.79;94654.25;5014879;28;20470;-56
2021/04/05 11:28:24;;;;;;;6.10;2.10;;;;;;;13.08;28.37;94662.00;5025062;28;20384;-57
2021/04/05 11:30:58;;;;;;;10.52;2.15;;;;;;;13.17;28.31;94650.03;5014403;28;20047;-49
2021/04/05 11:33:27;;;;;;;6.18;2.17;;;;;;;13.13;28.46;94652.72;5018761;28;20057;-49
2021/04/05 11:35:55;;;;;;;5.22;2.35;;;;;;;13.24;28.35;94644.63;5029977;28;20467;-50
2021/04/05 11:38:22;;;;;;;5.45;2.35;;;;;;;13.65;27.78;94631.66;5006813;28;20080;-48
2021/04/05 11:40:58;;;;;;;7.05;2.28;;;;;;;14.04;27.25;94625.53;5008303;28;20046;-55
2021/04/05 11:43:30;;;;;;;4.15;1.98;;;;;;;14.62;26.68;94621.69;4993225;28;20054;-50
2021/04/05 11:46:13;;;;;;;6.22;2.20;;;;;;;15.09;25.98;94621.63;4996454;28;20046;-50
2021/04/05 11:48:42;;;;;;;8.75;2.65;;;;;;;14.77;25.47;94610.78;5009758;28;20065;-55
2021/04/05 11:51:12;;;;;;;5.65;2.65;;;;;;;14.20;26.48;94614.25;5015121;28;20045;-60
2021/04/05 11:53:48;;;;;;;5.97;2.40;;;;;;;13.90;27.37;94599.06;5017389;28;20414;-56
2021/04/05 11:56:14;;;;;;;6.93;2.30;;;;;;;14.24;26.92;94599.50;4994939;28;20403;-53
2021/04/05 11:59:02;;;;;;;6.53;2.22;;;;;;;14.15;26.40;94599.09;4998619;28;20081;-54
2021/04/05 12:01:38;;;;;;;3.85;1.95;;;;;;;14.68;26.02;94606.50;5012772;28;20060;-52
2021/04/05 12:04:18;;;;;;;5.90;2.40;;;;;;;14.75;26.07;94596.78;5000886;28;20054;-56
2021/04/05 12:06:56;;;;;;;5.22;2.50;;;;;;;15.09;25.51;94595.16;5006066;28;20065;-53
2021/04/05 12:09:31;;;;;;;7.95;2.15;;;;;;;14.75;25.32;94596.78;4996266;28;20058;-55
2021/04/05 12:12:05;;;;;;;7.63;2.03;;;;;;;14.63;24.60;94574.25;5021006;28;20100;-54
2021/04/05 12:14:33;;;;;;;10.75;2.55;;;;;;;14.38;25.49;94578.91;5031016;28;20132;-53
2021/04/05 12:17:02;;;;;;;5.75;2.53;;;;;;;14.33;25.76;94593.69;5005713;28;20054;-48
2021/04/05 12:19:33;;;;;;;6.95;2.20;;;;;;;14.36;25.81;94571.13;4992138;28;20054;-52